KBJI/BJI METAR and TAF weather

Enter ICAO airport designator
Station Type Date Time Source
KBJI METAR 2021/03/08 02:35 UTC NOAA

KBJI 080235Z AUTO 28007KT 10SM SCT035 02/00 A2998 RMK AO2 T00240003


Station Type Date Time Source
KBJI Decoded METAR 2021/03/08 02:35 UTC NOAA

Bemidji, MN, United States (KBJI) 47-30N 094-56W 420M
Mar 07, 2021 - 09:35 PM EST / 2021.03.08 0235 UTC
Wind: from the W (280 degrees) at 8 MPH (7 KT):0
Visibility: 10 mile(s):0
Sky conditions: partly cloudy
Temperature: 36.3 F (2.4 C)
Dew Point: 32.5 F (0.3 C)
Relative Humidity: 85%
Pressure (altimeter): 29.98 in. Hg (1015 hPa)
ob: KBJI 080235Z AUTO 28007KT 10SM SCT035 02/00 A2998 RMK AO2 T00240003
cycle: 2

Station Type Date Time Source
KBJI TAF 2021/03/07 18:33 UTC NOAA

TAF KBJI 071731Z 0718/0818 19013G22KT P6SM SCT200
FM072100 23013G19KT P6SM SCT200
FM072300 28010KT P6SM SCT250
FM080600 VRB06KT P6SM SCT250

Example: see airport list